Hlavní strana
METAR-TAF:

METAR-TAF

Letiště :

Ghadames, Libye

zeměpisná šířka: 30-08N, zeměpisná délka: 009-30E, výška: 346 m

METAR: chybějící

Čas: 12:59 (10:59 UTC)

Předpověď počasí

Zpráva byla vytvořena před 23 hodinami a 59 minutami, v 11:00 UTC
Předpověď platná od 24 v 12 UTC do 25 v 12 UTC
Východojihovýchodní vítr 12 kt
Viditelnost: 7000 m

TAF: HLTD 241100Z 2412/2512 12012KT 7000 NSC

Stav a předpovědi počasí z více než 4 000 letišť (zprávy METAR a TAF).

Červené a žluté tečky na mapě představují dostupné meteorologické stanice.

Když kurzor umístíte na tečku, zobrazí se název stanice.

Pak kliknutím zobrazíte stav a předpověď počasí.

Chcete-li změnit mapu, kliknutím na zelené tlačítko se znaménkem +mapu přiblížíte, kliknutím na zelené tlačítko se znaménkem – mapu oddálíte a kliknutím na zelené šipky přejdete na sousední mapy.


METAR-TAF: